sensor_id;sensor_type;location;lat;lon;timestamp;P1;durP1;ratioP1;P2;durP2;ratioP2
12848;SDS011;6493;50.928;7.172;2023-08-21T00:01:47;1.07;;;0.83;;
12848;SDS011;6493;50.928;7.172;2023-08-21T00:06:52;1.50;;;1.30;;
12848;SDS011;6493;50.928;7.172;2023-08-21T00:11:56;1.53;;;1.10;;
12848;SDS011;6493;50.928;7.172;2023-08-21T00:16:59;1.00;;;1.00;;
12848;SDS011;6493;50.928;7.172;2023-08-21T00:22:06;1.47;;;1.10;;
12848;SDS011;6493;50.928;7.172;2023-08-21T00:27:09;1.30;;;1.10;;
12848;SDS011;6493;50.928;7.172;2023-08-21T00:32:13;1.27;;;1.10;;
12848;SDS011;6493;50.928;7.172;2023-08-21T00:37:19;1.00;;;1.00;;
12848;SDS011;6493;50.928;7.172;2023-08-21T00:42:22;1.43;;;1.10;;
12848;SDS011;6493;50.928;7.172;2023-08-21T00:47:26;1.20;;;1.10;;
12848;SDS011;6493;50.928;7.172;2023-08-21T00:52:31;1.60;;;1.20;;
12848;SDS011;6493;50.928;7.172;2023-08-21T00:57:35;1.13;;;1.00;;
12848;SDS011;6493;50.928;7.172;2023-08-21T01:02:41;1.30;;;1.20;;
12848;SDS011;6493;50.928;7.172;2023-08-21T01:07:49;1.23;;;1.13;;
12848;SDS011;6493;50.928;7.172;2023-08-21T01:12:57;1.17;;;1.07;;
12848;SDS011;6493;50.928;7.172;2023-08-21T01:18:09;1.17;;;1.07;;
12848;SDS011;6493;50.928;7.172;2023-08-21T01:23:26;1.60;;;1.10;;
12848;SDS011;6493;50.928;7.172;2023-08-21T01:28:36;0.90;;;0.90;;
12848;SDS011;6493;50.928;7.172;2023-08-21T01:33:42;1.37;;;1.20;;
12848;SDS011;6493;50.928;7.172;2023-08-21T01:38:49;1.47;;;1.00;;
12848;SDS011;6493;50.928;7.172;2023-08-21T01:43:53;0.97;;;0.90;;
12848;SDS011;6493;50.928;7.172;2023-08-21T01:48:57;0.90;;;0.90;;
12848;SDS011;6493;50.928;7.172;2023-08-21T01:54:02;1.80;;;1.07;;
12848;SDS011;6493;50.928;7.172;2023-08-21T01:59:05;1.20;;;1.10;;
12848;SDS011;6493;50.928;7.172;2023-08-21T02:04:09;1.33;;;1.00;;
12848;SDS011;6493;50.928;7.172;2023-08-21T02:09:14;1.20;;;1.10;;
12848;SDS011;6493;50.928;7.172;2023-08-21T02:14:18;1.30;;;1.00;;
12848;SDS011;6493;50.928;7.172;2023-08-21T02:19:21;1.27;;;1.00;;
12848;SDS011;6493;50.928;7.172;2023-08-21T02:24:26;1.07;;;0.97;;
12848;SDS011;6493;50.928;7.172;2023-08-21T02:29:30;1.17;;;1.03;;
12848;SDS011;6493;50.928;7.172;2023-08-21T02:34:37;1.77;;;1.27;;
12848;SDS011;6493;50.928;7.172;2023-08-21T02:39:43;1.57;;;1.10;;
12848;SDS011;6493;50.928;7.172;2023-08-21T02:44:47;1.40;;;1.20;;
12848;SDS011;6493;50.928;7.172;2023-08-21T02:49:50;1.40;;;1.00;;
12848;SDS011;6493;50.928;7.172;2023-08-21T02:54:55;1.20;;;1.10;;
12848;SDS011;6493;50.928;7.172;2023-08-21T02:59:59;1.63;;;1.30;;
12848;SDS011;6493;50.928;7.172;2023-08-21T03:05:03;1.30;;;1.10;;
12848;SDS011;6493;50.928;7.172;2023-08-21T03:10:11;2.50;;;1.10;;
12848;SDS011;6493;50.928;7.172;2023-08-21T03:15:15;1.20;;;1.10;;
12848;SDS011;6493;50.928;7.172;2023-08-21T03:20:18;1.20;;;1.10;;
12848;SDS011;6493;50.928;7.172;2023-08-21T03:25:23;1.30;;;1.20;;
12848;SDS011;6493;50.928;7.172;2023-08-21T03:30:27;1.10;;;1.00;;
12848;SDS011;6493;50.928;7.172;2023-08-21T03:35:31;1.37;;;1.27;;
12848;SDS011;6493;50.928;7.172;2023-08-21T03:40:39;1.43;;;1.33;;
12848;SDS011;6493;50.928;7.172;2023-08-21T03:45:42;1.10;;;1.00;;
12848;SDS011;6493;50.928;7.172;2023-08-21T03:50:46;1.57;;;1.20;;
12848;SDS011;6493;50.928;7.172;2023-08-21T03:55:51;1.37;;;1.27;;
12848;SDS011;6493;50.928;7.172;2023-08-21T04:00:55;1.13;;;1.07;;
12848;SDS011;6493;50.928;7.172;2023-08-21T04:05:59;1.30;;;1.20;;
12848;SDS011;6493;50.928;7.172;2023-08-21T04:11:04;2.50;;;1.07;;
12848;SDS011;6493;50.928;7.172;2023-08-21T04:16:08;1.67;;;1.30;;
12848;SDS011;6493;50.928;7.172;2023-08-21T04:21:15;1.90;;;1.33;;
12848;SDS011;6493;50.928;7.172;2023-08-21T04:26:20;1.23;;;1.13;;
12848;SDS011;6493;50.928;7.172;2023-08-21T04:31:24;1.10;;;1.00;;
12848;SDS011;6493;50.928;7.172;2023-08-21T04:36:28;1.20;;;1.10;;
12848;SDS011;6493;50.928;7.172;2023-08-21T04:41:33;0.90;;;0.90;;
12848;SDS011;6493;50.928;7.172;2023-08-21T04:46:38;1.03;;;0.90;;
12848;SDS011;6493;50.928;7.172;2023-08-21T04:51:42;1.93;;;1.10;;
12848;SDS011;6493;50.928;7.172;2023-08-21T04:56:47;1.20;;;1.10;;
12848;SDS011;6493;50.928;7.172;2023-08-21T05:01:51;2.77;;;1.43;;
12848;SDS011;6493;50.928;7.172;2023-08-21T05:06:55;1.27;;;1.17;;
12848;SDS011;6493;50.928;7.172;2023-08-21T05:12:00;1.43;;;1.27;;
12848;SDS011;6493;50.928;7.172;2023-08-21T05:17:04;1.97;;;1.17;;
12848;SDS011;6493;50.928;7.172;2023-08-21T05:22:08;1.40;;;1.30;;
12848;SDS011;6493;50.928;7.172;2023-08-21T05:27:13;1.50;;;1.10;;
12848;SDS011;6493;50.928;7.172;2023-08-21T05:32:17;1.17;;;1.07;;
12848;SDS011;6493;50.928;7.172;2023-08-21T05:37:21;1.17;;;1.07;;
12848;SDS011;6493;50.928;7.172;2023-08-21T05:42:26;1.47;;;1.10;;
12848;SDS011;6493;50.928;7.172;2023-08-21T05:47:30;5.57;;;1.30;;
12848;SDS011;6493;50.928;7.172;2023-08-21T05:52:34;1.20;;;1.10;;
12848;SDS011;6493;50.928;7.172;2023-08-21T05:57:44;1.30;;;1.20;;
12848;SDS011;6493;50.928;7.172;2023-08-21T06:02:47;1.63;;;1.30;;
12848;SDS011;6493;50.928;7.172;2023-08-21T06:08:29;2.10;;;1.70;;
12848;SDS011;6493;50.928;7.172;2023-08-21T06:13:35;1.23;;;1.13;;
12848;SDS011;6493;50.928;7.172;2023-08-21T06:18:38;1.40;;;1.30;;
12848;SDS011;6493;50.928;7.172;2023-08-21T06:23:42;1.37;;;1.27;;
12848;SDS011;6493;50.928;7.172;2023-08-21T06:28:47;2.50;;;2.10;;
12848;SDS011;6493;50.928;7.172;2023-08-21T06:33:51;1.80;;;1.70;;
12848;SDS011;6493;50.928;7.172;2023-08-21T06:38:54;1.87;;;1.77;;
12848;SDS011;6493;50.928;7.172;2023-08-21T06:43:59;3.50;;;1.93;;
12848;SDS011;6493;50.928;7.172;2023-08-21T06:49:04;1.33;;;1.23;;
12848;SDS011;6493;50.928;7.172;2023-08-21T06:54:08;1.63;;;1.47;;
12848;SDS011;6493;50.928;7.172;2023-08-21T06:59:12;1.80;;;1.70;;
12848;SDS011;6493;50.928;7.172;2023-08-21T07:04:17;1.87;;;1.67;;
12848;SDS011;6493;50.928;7.172;2023-08-21T07:09:21;2.83;;;2.23;;
12848;SDS011;6493;50.928;7.172;2023-08-21T07:14:26;2.33;;;1.90;;
12848;SDS011;6493;50.928;7.172;2023-08-21T07:19:29;2.20;;;2.10;;
12848;SDS011;6493;50.928;7.172;2023-08-21T07:24:33;2.40;;;2.20;;
12848;SDS011;6493;50.928;7.172;2023-08-21T07:29:38;2.37;;;2.27;;
12848;SDS011;6493;50.928;7.172;2023-08-21T07:34:41;2.43;;;2.23;;
12848;SDS011;6493;50.928;7.172;2023-08-21T07:39:45;2.77;;;2.57;;
12848;SDS011;6493;50.928;7.172;2023-08-21T07:44:50;2.90;;;2.70;;
12848;SDS011;6493;50.928;7.172;2023-08-21T07:49:53;2.87;;;2.67;;
12848;SDS011;6493;50.928;7.172;2023-08-21T07:54:57;2.43;;;2.27;;
12848;SDS011;6493;50.928;7.172;2023-08-21T08:00:04;2.13;;;1.93;;
12848;SDS011;6493;50.928;7.172;2023-08-21T08:05:14;2.33;;;2.23;;
12848;SDS011;6493;50.928;7.172;2023-08-21T08:10:17;2.57;;;2.37;;
12848;SDS011;6493;50.928;7.172;2023-08-21T08:15:22;2.07;;;1.87;;
12848;SDS011;6493;50.928;7.172;2023-08-21T08:20:26;2.30;;;2.20;;
12848;SDS011;6493;50.928;7.172;2023-08-21T08:25:30;2.70;;;2.50;;
12848;SDS011;6493;50.928;7.172;2023-08-21T08:30:35;2.43;;;2.27;;
12848;SDS011;6493;50.928;7.172;2023-08-21T08:35:38;3.80;;;2.50;;
12848;SDS011;6493;50.928;7.172;2023-08-21T08:40:45;2.00;;;1.90;;
12848;SDS011;6493;50.928;7.172;2023-08-21T08:45:51;2.10;;;2.00;;
12848;SDS011;6493;50.928;7.172;2023-08-21T08:50:57;2.60;;;2.40;;
12848;SDS011;6493;50.928;7.172;2023-08-21T08:56:01;2.50;;;2.40;;
12848;SDS011;6493;50.928;7.172;2023-08-21T09:01:06;2.87;;;2.67;;
12848;SDS011;6493;50.928;7.172;2023-08-21T09:06:12;2.13;;;2.00;;
12848;SDS011;6493;50.928;7.172;2023-08-21T09:11:16;2.70;;;2.50;;
12848;SDS011;6493;50.928;7.172;2023-08-21T09:16:22;2.67;;;2.47;;
12848;SDS011;6493;50.928;7.172;2023-08-21T09:21:27;2.40;;;2.20;;
12848;SDS011;6493;50.928;7.172;2023-08-21T09:26:31;2.73;;;2.53;;
12848;SDS011;6493;50.928;7.172;2023-08-21T09:31:36;2.60;;;2.40;;
12848;SDS011;6493;50.928;7.172;2023-08-21T09:36:41;2.40;;;2.20;;
12848;SDS011;6493;50.928;7.172;2023-08-21T09:41:54;2.20;;;2.10;;
12848;SDS011;6493;50.928;7.172;2023-08-21T09:46:59;2.23;;;2.13;;
12848;SDS011;6493;50.928;7.172;2023-08-21T09:52:04;2.50;;;2.30;;
12848;SDS011;6493;50.928;7.172;2023-08-21T09:57:08;2.40;;;2.20;;
12848;SDS011;6493;50.928;7.172;2023-08-21T10:02:15;2.40;;;2.20;;
12848;SDS011;6493;50.928;7.172;2023-08-21T10:07:20;1.90;;;1.80;;
12848;SDS011;6493;50.928;7.172;2023-08-21T10:12:25;2.47;;;2.07;;
12848;SDS011;6493;50.928;7.172;2023-08-21T10:17:31;2.13;;;2.03;;
12848;SDS011;6493;50.928;7.172;2023-08-21T10:22:36;2.10;;;2.00;;
12848;SDS011;6493;50.928;7.172;2023-08-21T10:27:42;1.63;;;1.53;;
12848;SDS011;6493;50.928;7.172;2023-08-21T10:32:47;1.83;;;1.67;;
12848;SDS011;6493;50.928;7.172;2023-08-21T10:38:05;2.63;;;2.20;;
12848;SDS011;6493;50.928;7.172;2023-08-21T10:48:51;1.80;;;1.70;;
12848;SDS011;6493;50.928;7.172;2023-08-21T10:53:54;2.17;;;1.97;;
12848;SDS011;6493;50.928;7.172;2023-08-21T10:58:58;2.03;;;1.60;;
12848;SDS011;6493;50.928;7.172;2023-08-21T11:04:03;2.30;;;2.10;;
12848;SDS011;6493;50.928;7.172;2023-08-21T11:09:12;1.60;;;1.50;;
12848;SDS011;6493;50.928;7.172;2023-08-21T11:14:16;1.60;;;1.50;;
12848;SDS011;6493;50.928;7.172;2023-08-21T11:19:21;1.80;;;1.70;;
12848;SDS011;6493;50.928;7.172;2023-08-21T11:24:29;2.27;;;2.00;;
12848;SDS011;6493;50.928;7.172;2023-08-21T11:29:36;1.27;;;1.23;;
12848;SDS011;6493;50.928;7.172;2023-08-21T11:34:43;1.50;;;1.40;;
12848;SDS011;6493;50.928;7.172;2023-08-21T11:39:52;1.67;;;1.57;;
12848;SDS011;6493;50.928;7.172;2023-08-21T11:44:56;1.17;;;1.13;;
12848;SDS011;6493;50.928;7.172;2023-08-21T11:50:04;2.40;;;1.37;;
12848;SDS011;6493;50.928;7.172;2023-08-21T11:55:09;1.90;;;1.80;;
12848;SDS011;6493;50.928;7.172;2023-08-21T12:00:13;1.63;;;1.53;;
12848;SDS011;6493;50.928;7.172;2023-08-21T12:05:22;1.97;;;1.80;;
12848;SDS011;6493;50.928;7.172;2023-08-21T12:10:26;1.60;;;1.50;;
12848;SDS011;6493;50.928;7.172;2023-08-21T12:15:31;1.83;;;1.63;;
12848;SDS011;6493;50.928;7.172;2023-08-21T12:20:36;1.43;;;1.33;;
12848;SDS011;6493;50.928;7.172;2023-08-21T12:25:40;1.57;;;1.47;;
12848;SDS011;6493;50.928;7.172;2023-08-21T12:30:44;1.53;;;1.40;;
12848;SDS011;6493;50.928;7.172;2023-08-21T12:35:50;1.80;;;1.67;;
12848;SDS011;6493;50.928;7.172;2023-08-21T12:40:53;3.50;;;1.60;;
12848;SDS011;6493;50.928;7.172;2023-08-21T12:45:57;1.40;;;1.30;;
12848;SDS011;6493;50.928;7.172;2023-08-21T12:51:02;2.30;;;1.90;;
12848;SDS011;6493;50.928;7.172;2023-08-21T12:56:07;1.60;;;1.47;;
12848;SDS011;6493;50.928;7.172;2023-08-21T13:01:10;1.07;;;1.07;;
12848;SDS011;6493;50.928;7.172;2023-08-21T13:06:15;1.10;;;1.00;;
12848;SDS011;6493;50.928;7.172;2023-08-21T13:11:19;1.43;;;1.30;;
12848;SDS011;6493;50.928;7.172;2023-08-21T13:16:23;1.17;;;1.03;;
12848;SDS011;6493;50.928;7.172;2023-08-21T13:21:28;1.37;;;0.97;;
12848;SDS011;6493;50.928;7.172;2023-08-21T13:26:32;0.87;;;0.87;;
12848;SDS011;6493;50.928;7.172;2023-08-21T13:31:35;1.00;;;0.87;;
12848;SDS011;6493;50.928;7.172;2023-08-21T13:36:40;1.10;;;1.00;;
12848;SDS011;6493;50.928;7.172;2023-08-21T13:41:44;1.30;;;1.00;;
12848;SDS011;6493;50.928;7.172;2023-08-21T13:46:48;1.03;;;0.93;;
12848;SDS011;6493;50.928;7.172;2023-08-21T13:51:53;1.27;;;0.93;;
12848;SDS011;6493;50.928;7.172;2023-08-21T13:56:58;0.87;;;0.87;;
12848;SDS011;6493;50.928;7.172;2023-08-21T14:02:02;2.30;;;1.10;;
12848;SDS011;6493;50.928;7.172;2023-08-21T14:07:07;0.80;;;0.80;;
12848;SDS011;6493;50.928;7.172;2023-08-21T14:12:10;1.20;;;1.10;;
12848;SDS011;6493;50.928;7.172;2023-08-21T14:17:14;0.93;;;0.80;;
12848;SDS011;6493;50.928;7.172;2023-08-21T14:22:19;1.07;;;0.97;;
12848;SDS011;6493;50.928;7.172;2023-08-21T14:27:23;1.00;;;0.90;;
12848;SDS011;6493;50.928;7.172;2023-08-21T14:32:26;1.50;;;0.90;;
12848;SDS011;6493;50.928;7.172;2023-08-21T14:37:31;0.93;;;0.70;;
12848;SDS011;6493;50.928;7.172;2023-08-21T14:42:35;0.80;;;0.80;;
12848;SDS011;6493;50.928;7.172;2023-08-21T14:47:40;0.83;;;0.70;;
12848;SDS011;6493;50.928;7.172;2023-08-21T14:52:45;1.53;;;0.80;;
12848;SDS011;6493;50.928;7.172;2023-08-21T14:57:49;1.07;;;0.77;;
12848;SDS011;6493;50.928;7.172;2023-08-21T15:02:53;2.20;;;0.83;;
12848;SDS011;6493;50.928;7.172;2023-08-21T15:07:58;1.10;;;0.80;;
12848;SDS011;6493;50.928;7.172;2023-08-21T15:13:03;0.97;;;0.70;;
12848;SDS011;6493;50.928;7.172;2023-08-21T15:18:07;0.83;;;0.80;;
12848;SDS011;6493;50.928;7.172;2023-08-21T15:23:12;0.70;;;0.67;;
12848;SDS011;6493;50.928;7.172;2023-08-21T15:28:16;0.80;;;0.70;;
12848;SDS011;6493;50.928;7.172;2023-08-21T15:33:20;0.70;;;0.63;;
12848;SDS011;6493;50.928;7.172;2023-08-21T15:38:25;0.60;;;0.60;;
12848;SDS011;6493;50.928;7.172;2023-08-21T15:43:28;0.70;;;0.70;;
12848;SDS011;6493;50.928;7.172;2023-08-21T15:48:32;0.80;;;0.80;;
12848;SDS011;6493;50.928;7.172;2023-08-21T15:53:37;0.70;;;0.70;;
12848;SDS011;6493;50.928;7.172;2023-08-21T15:58:41;1.33;;;0.90;;
12848;SDS011;6493;50.928;7.172;2023-08-21T16:03:45;1.03;;;0.70;;
12848;SDS011;6493;50.928;7.172;2023-08-21T16:08:50;0.80;;;0.70;;
12848;SDS011;6493;50.928;7.172;2023-08-21T16:13:54;0.77;;;0.70;;
12848;SDS011;6493;50.928;7.172;2023-08-21T16:18:59;0.80;;;0.73;;
12848;SDS011;6493;50.928;7.172;2023-08-21T16:24:04;0.70;;;0.70;;
12848;SDS011;6493;50.928;7.172;2023-08-21T16:29:08;1.30;;;0.77;;
12848;SDS011;6493;50.928;7.172;2023-08-21T16:34:13;1.37;;;0.70;;
12848;SDS011;6493;50.928;7.172;2023-08-21T16:39:18;0.70;;;0.70;;
12848;SDS011;6493;50.928;7.172;2023-08-21T16:44:21;0.70;;;0.70;;
12848;SDS011;6493;50.928;7.172;2023-08-21T16:49:25;0.53;;;0.53;;
12848;SDS011;6493;50.928;7.172;2023-08-21T16:54:30;1.70;;;0.80;;
12848;SDS011;6493;50.928;7.172;2023-08-21T16:59:33;0.80;;;0.70;;
12848;SDS011;6493;50.928;7.172;2023-08-21T17:04:37;0.60;;;0.40;;
12848;SDS011;6493;50.928;7.172;2023-08-21T17:09:43;0.50;;;0.50;;
12848;SDS011;6493;50.928;7.172;2023-08-21T17:14:48;0.90;;;0.60;;
12848;SDS011;6493;50.928;7.172;2023-08-21T17:19:52;0.40;;;0.40;;
12848;SDS011;6493;50.928;7.172;2023-08-21T17:24:57;0.63;;;0.60;;
12848;SDS011;6493;50.928;7.172;2023-08-21T17:30:16;0.50;;;0.50;;
12848;SDS011;6493;50.928;7.172;2023-08-21T17:35:19;0.60;;;0.60;;
12848;SDS011;6493;50.928;7.172;2023-08-21T17:40:24;0.70;;;0.57;;
12848;SDS011;6493;50.928;7.172;2023-08-21T17:45:28;0.60;;;0.50;;
12848;SDS011;6493;50.928;7.172;2023-08-21T17:50:32;0.60;;;0.53;;
12848;SDS011;6493;50.928;7.172;2023-08-21T17:55:36;0.50;;;0.50;;
12848;SDS011;6493;50.928;7.172;2023-08-21T18:00:40;0.83;;;0.60;;
12848;SDS011;6493;50.928;7.172;2023-08-21T18:05:44;0.57;;;0.57;;
12848;SDS011;6493;50.928;7.172;2023-08-21T18:10:49;1.23;;;0.60;;
12848;SDS011;6493;50.928;7.172;2023-08-21T18:15:53;0.53;;;0.43;;
12848;SDS011;6493;50.928;7.172;2023-08-21T18:20:57;0.87;;;0.60;;
12848;SDS011;6493;50.928;7.172;2023-08-21T18:26:02;0.40;;;0.40;;
12848;SDS011;6493;50.928;7.172;2023-08-21T18:31:05;0.57;;;0.57;;
12848;SDS011;6493;50.928;7.172;2023-08-21T18:36:09;0.90;;;0.60;;
12848;SDS011;6493;50.928;7.172;2023-08-21T18:41:14;0.93;;;0.50;;
12848;SDS011;6493;50.928;7.172;2023-08-21T18:46:18;0.87;;;0.60;;
12848;SDS011;6493;50.928;7.172;2023-08-21T18:51:22;0.73;;;0.63;;
12848;SDS011;6493;50.928;7.172;2023-08-21T18:56:27;0.50;;;0.50;;
12848;SDS011;6493;50.928;7.172;2023-08-21T19:01:30;0.50;;;0.50;;
12848;SDS011;6493;50.928;7.172;2023-08-21T19:06:34;0.50;;;0.40;;
12848;SDS011;6493;50.928;7.172;2023-08-21T19:11:45;0.83;;;0.60;;
12848;SDS011;6493;50.928;7.172;2023-08-21T19:16:49;0.60;;;0.60;;
12848;SDS011;6493;50.928;7.172;2023-08-21T19:21:56;0.80;;;0.57;;
12848;SDS011;6493;50.928;7.172;2023-08-21T19:27:01;2.07;;;0.53;;
12848;SDS011;6493;50.928;7.172;2023-08-21T19:32:05;2.00;;;0.50;;
12848;SDS011;6493;50.928;7.172;2023-08-21T19:37:09;0.40;;;0.40;;
12848;SDS011;6493;50.928;7.172;2023-08-21T19:42:14;0.57;;;0.57;;
12848;SDS011;6493;50.928;7.172;2023-08-21T19:47:17;0.70;;;0.50;;
12848;SDS011;6493;50.928;7.172;2023-08-21T19:52:21;0.40;;;0.40;;
12848;SDS011;6493;50.928;7.172;2023-08-21T19:57:26;1.63;;;0.60;;
12848;SDS011;6493;50.928;7.172;2023-08-21T20:02:29;0.47;;;0.43;;
12848;SDS011;6493;50.928;7.172;2023-08-21T20:07:35;0.67;;;0.57;;
12848;SDS011;6493;50.928;7.172;2023-08-21T20:12:41;2.00;;;0.60;;
12848;SDS011;6493;50.928;7.172;2023-08-21T20:17:46;0.97;;;0.70;;
12848;SDS011;6493;50.928;7.172;2023-08-21T20:22:50;0.57;;;0.53;;
12848;SDS011;6493;50.928;7.172;2023-08-21T20:27:55;0.67;;;0.67;;
12848;SDS011;6493;50.928;7.172;2023-08-21T20:32:58;0.77;;;0.67;;
12848;SDS011;6493;50.928;7.172;2023-08-21T20:38:02;1.03;;;0.63;;
12848;SDS011;6493;50.928;7.172;2023-08-21T20:43:08;0.70;;;0.50;;
12848;SDS011;6493;50.928;7.172;2023-08-21T20:48:12;1.17;;;0.73;;
12848;SDS011;6493;50.928;7.172;2023-08-21T20:53:15;0.70;;;0.70;;
12848;SDS011;6493;50.928;7.172;2023-08-21T20:58:20;0.90;;;0.60;;
12848;SDS011;6493;50.928;7.172;2023-08-21T21:03:24;0.93;;;0.77;;
12848;SDS011;6493;50.928;7.172;2023-08-21T21:08:28;0.40;;;0.40;;
12848;SDS011;6493;50.928;7.172;2023-08-21T21:13:33;0.90;;;0.50;;
12848;SDS011;6493;50.928;7.172;2023-08-21T21:18:37;1.00;;;0.60;;
12848;SDS011;6493;50.928;7.172;2023-08-21T21:23:41;0.73;;;0.70;;
12848;SDS011;6493;50.928;7.172;2023-08-21T21:29:06;1.03;;;0.63;;
12848;SDS011;6493;50.928;7.172;2023-08-21T21:34:11;1.10;;;0.73;;
12848;SDS011;6493;50.928;7.172;2023-08-21T21:39:15;0.60;;;0.50;;
12848;SDS011;6493;50.928;7.172;2023-08-21T21:44:20;0.60;;;0.60;;
12848;SDS011;6493;50.928;7.172;2023-08-21T21:49:26;0.50;;;0.50;;
12848;SDS011;6493;50.928;7.172;2023-08-21T21:54:30;0.63;;;0.60;;
12848;SDS011;6493;50.928;7.172;2023-08-21T21:59:35;0.60;;;0.60;;
12848;SDS011;6493;50.928;7.172;2023-08-21T22:04:39;1.40;;;0.80;;
12848;SDS011;6493;50.928;7.172;2023-08-21T22:09:42;0.73;;;0.50;;
12848;SDS011;6493;50.928;7.172;2023-08-21T22:14:49;0.93;;;0.63;;
12848;SDS011;6493;50.928;7.172;2023-08-21T22:19:53;0.93;;;0.60;;
12848;SDS011;6493;50.928;7.172;2023-08-21T22:24:57;1.47;;;0.70;;
12848;SDS011;6493;50.928;7.172;2023-08-21T22:30:03;0.70;;;0.57;;
12848;SDS011;6493;50.928;7.172;2023-08-21T22:35:07;0.73;;;0.73;;
12848;SDS011;6493;50.928;7.172;2023-08-21T22:40:11;0.90;;;0.70;;
12848;SDS011;6493;50.928;7.172;2023-08-21T22:45:16;1.50;;;0.60;;
12848;SDS011;6493;50.928;7.172;2023-08-21T22:50:20;0.90;;;0.73;;
12848;SDS011;6493;50.928;7.172;2023-08-21T22:55:23;0.63;;;0.60;;
12848;SDS011;6493;50.928;7.172;2023-08-21T23:00:28;1.00;;;0.70;;
12848;SDS011;6493;50.928;7.172;2023-08-21T23:05:32;0.60;;;0.60;;
12848;SDS011;6493;50.928;7.172;2023-08-21T23:10:36;1.30;;;0.60;;
12848;SDS011;6493;50.928;7.172;2023-08-21T23:15:44;0.70;;;0.70;;
12848;SDS011;6493;50.928;7.172;2023-08-21T23:20:54;0.70;;;0.60;;
12848;SDS011;6493;50.928;7.172;2023-08-21T23:25:59;0.60;;;0.60;;
12848;SDS011;6493;50.928;7.172;2023-08-21T23:31:04;0.70;;;0.70;;
12848;SDS011;6493;50.928;7.172;2023-08-21T23:36:08;0.60;;;0.60;;
12848;SDS011;6493;50.928;7.172;2023-08-21T23:41:12;0.70;;;0.60;;
12848;SDS011;6493;50.928;7.172;2023-08-21T23:46:18;0.83;;;0.50;;
12848;SDS011;6493;50.928;7.172;2023-08-21T23:51:22;0.90;;;0.70;;
12848;SDS011;6493;50.928;7.172;2023-08-21T23:56:26;1.00;;;0.63;;
